createdAt,value
2018-12-17T00:01:46.786Z,86.23
2018-12-17T00:04:16.114Z,86.21
2018-12-17T00:06:45.438Z,86.26
2018-12-17T00:09:14.713Z,86.36
2018-12-17T00:11:44.008Z,86.25
2018-12-17T00:14:13.285Z,86.26
2018-12-17T00:16:42.599Z,86.29
2018-12-17T00:19:11.953Z,86.26
2018-12-17T00:21:41.261Z,86.57
2018-12-17T00:24:10.690Z,86.48
2018-12-17T00:26:39.944Z,86.78
2018-12-17T00:29:09.219Z,87.17
2018-12-17T00:31:38.478Z,87.23
2018-12-17T00:34:07.800Z,87.09
2018-12-17T00:36:37.059Z,87.30
2018-12-17T00:39:07.638Z,87.50
2018-12-17T00:41:36.995Z,87.57
2018-12-17T00:44:06.435Z,87.52
2018-12-17T00:46:35.802Z,87.59
2018-12-17T00:49:05.053Z,87.91
2018-12-17T00:51:34.335Z,88.05
2018-12-17T00:54:03.695Z,88.10
2018-12-17T00:56:33.070Z,88.28
2018-12-17T00:59:02.317Z,88.45
2018-12-17T01:01:31.641Z,88.56
2018-12-17T01:04:00.999Z,88.59
2018-12-17T01:06:30.317Z,88.78
2018-12-17T01:08:59.597Z,88.93
2018-12-17T01:11:28.883Z,88.90
2018-12-17T01:13:58.158Z,89.06
2018-12-17T01:16:27.481Z,89.05
2018-12-17T01:18:56.725Z,89.05
2018-12-17T01:21:26.044Z,89.00
2018-12-17T01:23:55.325Z,88.80
2018-12-17T01:26:24.744Z,88.58
2018-12-17T01:28:54.028Z,88.72
2018-12-17T01:31:23.311Z,88.59
2018-12-17T01:33:52.579Z,88.48
2018-12-17T01:36:21.891Z,88.35
2018-12-17T01:38:51.201Z,88.15
2018-12-17T01:41:20.481Z,88.06
2018-12-17T01:43:49.755Z,87.96
2018-12-17T01:46:19.137Z,87.80
2018-12-17T01:48:48.459Z,87.78
2018-12-17T01:51:17.744Z,87.71
2018-12-17T01:53:47.065Z,87.69
2018-12-17T01:56:16.437Z,87.45
2018-12-17T01:58:45.776Z,87.38
2018-12-17T02:01:15.154Z,87.49
2018-12-17T02:03:44.425Z,87.53
2018-12-17T02:06:13.727Z,87.56
2018-12-17T02:08:42.987Z,87.62
2018-12-17T02:11:12.343Z,87.62
2018-12-17T02:13:41.642Z,87.64
2018-12-17T02:16:10.932Z,87.67
2018-12-17T02:18:40.219Z,87.62
2018-12-17T02:21:09.553Z,87.74
2018-12-17T02:23:38.779Z,87.80
2018-12-17T02:26:27.512Z,87.83
2018-12-17T02:28:56.798Z,87.66
2018-12-17T02:31:26.091Z,87.88
2018-12-17T02:33:55.369Z,88.01
2018-12-17T02:36:24.731Z,88.07
2018-12-17T02:38:54.103Z,88.29
2018-12-17T02:41:23.402Z,88.46
2018-12-17T02:43:52.674Z,88.46
2018-12-17T02:46:22.011Z,88.59
2018-12-17T02:48:51.333Z,88.47
2018-12-17T02:51:20.604Z,88.55
2018-12-17T02:53:49.935Z,88.84
2018-12-17T02:56:19.323Z,88.61
2018-12-17T02:58:48.640Z,88.59
2018-12-17T03:01:17.900Z,88.65
2018-12-17T03:03:47.200Z,88.71
2018-12-17T03:06:16.534Z,88.62
2018-12-17T03:08:45.859Z,88.67
2018-12-17T03:11:15.222Z,88.53
2018-12-17T03:13:44.545Z,88.48
2018-12-17T03:16:13.862Z,88.50
2018-12-17T03:18:43.172Z,88.30
2018-12-17T03:21:12.543Z,88.46
2018-12-17T03:23:41.847Z,88.48
2018-12-17T03:26:11.138Z,88.42
2018-12-17T03:28:40.384Z,88.32
2018-12-17T03:31:09.652Z,88.30
2018-12-17T03:33:38.902Z,88.24
2018-12-17T03:36:08.178Z,88.21
2018-12-17T03:38:37.538Z,88.01
2018-12-17T03:41:06.865Z,88.01
2018-12-17T03:43:36.132Z,87.73
2018-12-17T03:46:05.452Z,87.80
2018-12-17T03:48:34.705Z,87.88
2018-12-17T03:51:04.065Z,87.92
2018-12-17T03:53:33.446Z,87.99
2018-12-17T03:56:02.752Z,87.89
2018-12-17T03:58:32.043Z,87.80
2018-12-17T04:01:01.366Z,87.61
2018-12-17T04:03:30.744Z,87.71
2018-12-17T04:06:00.063Z,87.71
2018-12-17T04:08:29.338Z,87.70
2018-12-17T04:10:58.621Z,87.64
2018-12-17T04:13:27.939Z,87.57
2018-12-17T04:15:57.192Z,87.61
2018-12-17T04:18:26.512Z,87.70
2018-12-17T04:20:55.852Z,87.68
2018-12-17T04:23:25.147Z,87.64
2018-12-17T04:25:54.428Z,87.51
2018-12-17T04:28:23.712Z,87.36
2018-12-17T04:30:53.047Z,87.32
2018-12-17T04:33:22.390Z,87.01
2018-12-17T04:35:51.721Z,86.91
2018-12-17T04:38:20.981Z,86.77
2018-12-17T04:40:50.221Z,86.44
2018-12-17T04:43:19.528Z,86.44
2018-12-17T04:45:48.877Z,86.46
2018-12-17T04:48:18.181Z,86.33
2018-12-17T04:50:47.421Z,86.21
2018-12-17T04:53:16.668Z,86.29
2018-12-17T04:55:45.956Z,86.36
2018-12-17T04:58:15.244Z,86.42
2018-12-17T05:00:44.571Z,86.39
2018-12-17T05:03:13.899Z,86.37
2018-12-17T05:05:43.163Z,86.54
2018-12-17T05:08:12.458Z,86.48
2018-12-17T05:10:41.745Z,86.34
2018-12-17T05:13:11.090Z,86.19
2018-12-17T05:15:40.382Z,86.15
2018-12-17T05:18:09.685Z,86.32
2018-12-17T05:20:38.937Z,86.26
2018-12-17T05:23:08.205Z,86.34
2018-12-17T05:25:37.570Z,86.40
2018-12-17T05:28:07.002Z,86.38
2018-12-17T05:30:36.315Z,86.39
2018-12-17T05:33:05.646Z,86.36
2018-12-17T05:35:35.826Z,86.46
2018-12-17T05:38:05.255Z,86.52
2018-12-17T05:40:34.623Z,86.53
2018-12-17T05:43:03.909Z,86.68
2018-12-17T05:45:33.229Z,86.75
2018-12-17T05:48:02.509Z,86.79
2018-12-17T05:50:31.779Z,86.92
2018-12-17T05:53:01.029Z,86.78
2018-12-17T05:55:30.447Z,86.75
2018-12-17T05:57:59.741Z,86.88
2018-12-17T06:00:29.114Z,86.90
2018-12-17T06:02:58.398Z,86.93
2018-12-17T06:05:27.684Z,86.90
2018-12-17T06:07:59.925Z,86.92
2018-12-17T06:10:29.227Z,86.84
2018-12-17T06:12:58.505Z,86.92
2018-12-17T06:15:27.846Z,86.87
2018-12-17T06:17:57.195Z,86.93
2018-12-17T06:20:26.633Z,86.89
2018-12-17T06:22:55.902Z,86.99
2018-12-17T06:25:25.242Z,86.94
2018-12-17T06:27:54.565Z,86.78
2018-12-17T06:30:23.852Z,87.02
2018-12-17T06:32:53.227Z,87.06
2018-12-17T06:35:22.507Z,87.09
2018-12-17T06:37:51.837Z,87.08
2018-12-17T06:40:21.137Z,86.95
2018-12-17T06:42:50.539Z,87.00
2018-12-17T06:45:19.823Z,86.98
2018-12-17T06:47:49.155Z,86.90
2018-12-17T06:50:18.415Z,86.92
2018-12-17T06:52:47.753Z,86.69
2018-12-17T06:55:17.154Z,86.75
2018-12-17T06:57:46.421Z,86.73
2018-12-17T07:00:15.718Z,86.71
2018-12-17T07:02:44.979Z,86.62
2018-12-17T07:05:14.245Z,86.57
2018-12-17T07:07:43.579Z,86.55
2018-12-17T07:10:12.931Z,86.37
2018-12-17T07:12:42.265Z,86.44
2018-12-17T07:15:11.728Z,86.12
2018-12-17T07:17:41.078Z,86.29
2018-12-17T07:20:10.363Z,86.27
2018-12-17T07:22:39.636Z,86.38
2018-12-17T07:25:08.975Z,86.44
2018-12-17T07:27:38.373Z,86.26
2018-12-17T07:30:08.401Z,92.28
2018-12-17T07:32:38.066Z,90.84
2018-12-17T07:35:07.691Z,89.28
2018-12-17T07:37:36.873Z,86.50
2018-12-17T07:40:06.959Z,86.65
2018-12-17T07:42:36.479Z,86.47
2018-12-17T07:45:06.218Z,85.74
2018-12-17T07:47:35.496Z,85.59
2018-12-17T07:50:05.709Z,85.56
2018-12-17T07:52:35.355Z,85.65
2018-12-17T07:55:05.138Z,85.60
2018-12-17T07:57:34.438Z,85.85
2018-12-17T08:00:03.915Z,85.91
2018-12-17T08:02:33.219Z,86.07
2018-12-17T08:05:02.593Z,86.06
2018-12-17T08:07:31.863Z,85.99
2018-12-17T08:10:01.327Z,86.00
2018-12-17T08:12:30.684Z,86.02
2018-12-17T08:15:00.201Z,85.84
2018-12-17T08:17:29.588Z,85.83
2018-12-17T08:19:58.875Z,85.89
2018-12-17T08:22:28.329Z,85.80
2018-12-17T08:24:57.705Z,85.69
2018-12-17T08:27:27.459Z,85.56
2018-12-17T08:30:03.734Z,85.55
2018-12-17T08:32:26.055Z,85.39
2018-12-17T08:34:55.323Z,85.60
2018-12-17T08:37:24.635Z,85.40
2018-12-17T08:39:53.913Z,85.63
2018-12-17T08:42:23.513Z,85.68
2018-12-17T08:44:52.862Z,85.72
2018-12-17T08:47:22.257Z,85.76
2018-12-17T08:49:51.483Z,85.69
2018-12-17T08:52:20.779Z,85.66
2018-12-17T08:54:50.083Z,85.54
2018-12-17T08:57:19.387Z,85.54
2018-12-17T08:59:48.665Z,85.20
2018-12-17T09:02:17.983Z,85.34
2018-12-17T09:04:47.341Z,85.31
2018-12-17T09:07:16.751Z,85.50
2018-12-17T09:09:46.078Z,85.35
2018-12-17T09:12:15.469Z,85.27
2018-12-17T09:14:44.852Z,85.19
2018-12-17T09:17:14.155Z,85.28
2018-12-17T09:19:43.503Z,85.22
2018-12-17T09:22:12.851Z,85.28
2018-12-17T09:24:42.163Z,84.98
2018-12-17T09:27:11.422Z,85.11
2018-12-17T09:29:40.773Z,84.80
2018-12-17T09:32:10.112Z,84.93
2018-12-17T09:34:39.430Z,84.96
2018-12-17T09:37:08.759Z,84.87
2018-12-17T09:39:38.121Z,84.45
2018-12-17T09:42:07.383Z,84.13
2018-12-17T09:44:36.694Z,84.38
2018-12-17T09:47:05.986Z,84.37
2018-12-17T09:49:35.262Z,84.24
2018-12-17T09:52:04.516Z,84.12
2018-12-17T09:54:33.886Z,83.87
2018-12-17T09:57:03.237Z,83.86
2018-12-17T09:59:32.572Z,83.58
2018-12-17T10:02:01.858Z,83.65
2018-12-17T10:04:31.192Z,82.81
2018-12-17T10:07:00.562Z,82.76
2018-12-17T10:09:29.918Z,82.72
2018-12-17T10:11:59.263Z,82.71
2018-12-17T10:14:28.595Z,82.60
2018-12-17T10:16:58.147Z,82.52
2018-12-17T10:19:27.400Z,82.46
2018-12-17T10:21:56.745Z,82.50
2018-12-17T10:24:26.004Z,82.50
2018-12-17T10:26:55.302Z,82.59
2018-12-17T10:29:24.638Z,82.14
2018-12-17T10:31:53.970Z,82.55
2018-12-17T10:34:23.433Z,82.40
2018-12-17T10:36:52.734Z,82.45
2018-12-17T10:39:22.185Z,82.53
2018-12-17T10:41:51.487Z,82.67
2018-12-17T10:44:20.822Z,82.26
2018-12-17T10:46:50.141Z,82.38
2018-12-17T10:49:19.420Z,82.31
2018-12-17T10:51:48.735Z,82.37
2018-12-17T10:54:18.021Z,82.12
2018-12-17T10:56:47.347Z,81.78
2018-12-17T10:59:16.591Z,81.69
2018-12-17T11:02:07.655Z,81.70
2018-12-17T11:04:49.262Z,81.81
2018-12-17T11:07:18.533Z,81.61
2018-12-17T11:09:47.797Z,81.28
2018-12-17T11:12:17.120Z,81.50
2018-12-17T11:14:46.582Z,81.21
2018-12-17T11:17:15.828Z,81.29
2018-12-17T11:19:45.174Z,81.25
2018-12-17T11:22:14.454Z,81.41
2018-12-17T11:24:43.760Z,81.48
2018-12-17T11:27:13.130Z,81.66
2018-12-17T11:29:42.885Z,81.79
2018-12-17T11:32:12.129Z,81.95
2018-12-17T11:34:41.483Z,81.91
2018-12-17T11:37:10.839Z,81.76
2018-12-17T11:39:40.182Z,81.90
2018-12-17T11:42:09.433Z,81.89
2018-12-17T11:44:38.775Z,81.81
2018-12-17T11:47:08.065Z,81.90
2018-12-17T11:49:37.467Z,81.65
2018-12-17T11:52:06.869Z,81.33
2018-12-17T11:54:36.193Z,81.21
2018-12-17T11:58:14.651Z,80.91
2018-12-17T12:01:04.158Z,80.76
2018-12-17T12:03:35.469Z,80.56
2018-12-17T12:06:04.773Z,80.28
2018-12-17T12:08:34.145Z,80.25
2018-12-17T12:11:03.510Z,79.15
2018-12-17T12:13:32.800Z,78.55
2018-12-17T12:16:02.173Z,78.53
2018-12-17T12:18:31.527Z,78.40
2018-12-17T12:21:00.854Z,77.99
2018-12-17T12:23:30.983Z,77.37
2018-12-17T12:26:00.367Z,77.65
2018-12-17T12:28:29.631Z,77.55
2018-12-17T12:31:00.565Z,77.56
2018-12-17T12:33:28.190Z,77.79
2018-12-17T12:35:57.485Z,77.31
2018-12-17T12:38:26.830Z,76.88
2018-12-17T12:40:56.161Z,75.67
2018-12-17T12:43:25.457Z,75.35
2018-12-17T12:45:54.734Z,75.20
2018-12-17T12:48:24.037Z,75.31
2018-12-17T12:50:53.395Z,76.31
2018-12-17T12:53:25.621Z,76.31
2018-12-17T12:55:54.935Z,76.36
2018-12-17T12:58:24.285Z,76.78
2018-12-17T13:00:53.593Z,76.97
2018-12-17T13:03:22.883Z,77.21
2018-12-17T13:05:52.187Z,77.25
2018-12-17T13:08:21.469Z,77.42
2018-12-17T13:10:50.874Z,77.03
2018-12-17T13:13:20.187Z,77.22
2018-12-17T13:15:49.703Z,77.18
2018-12-17T13:18:19.011Z,77.38
2018-12-17T13:20:48.305Z,77.35
2018-12-17T13:23:17.649Z,77.40
2018-12-17T13:25:49.975Z,77.53
2018-12-17T13:28:19.393Z,77.79
2018-12-17T13:30:48.664Z,77.59
2018-12-17T13:33:17.997Z,77.52
2018-12-17T13:35:47.539Z,77.59
2018-12-17T13:38:16.875Z,77.63
2018-12-17T13:40:46.184Z,77.95
2018-12-17T13:43:15.478Z,78.06
2018-12-17T13:45:44.833Z,77.93
2018-12-17T13:48:14.204Z,78.13
2018-12-17T13:50:43.458Z,78.23
2018-12-17T13:53:30.403Z,78.55
2018-12-17T13:55:59.795Z,78.88
2018-12-17T13:58:29.281Z,79.06
2018-12-17T14:00:58.548Z,79.27
2018-12-17T14:03:28.005Z,79.89
2018-12-17T14:05:57.296Z,80.34
2018-12-17T14:08:26.574Z,80.89
2018-12-17T14:10:55.849Z,81.08
2018-12-17T14:13:25.179Z,81.75
2018-12-17T14:16:13.610Z,82.02
2018-12-17T14:19:01.650Z,84.72
2018-12-17T14:21:48.870Z,82.42
2018-12-17T14:24:18.168Z,81.80
2018-12-17T14:26:47.541Z,81.93
2018-12-17T14:29:16.849Z,82.21
2018-12-17T14:31:46.119Z,82.55
2018-12-17T14:34:15.400Z,83.08
2018-12-17T14:36:44.672Z,83.25
2018-12-17T14:39:13.946Z,83.30
2018-12-17T14:41:43.217Z,83.31
2018-12-17T14:44:30.489Z,83.38
2018-12-17T14:46:59.798Z,83.56
2018-12-17T14:49:29.113Z,83.52
2018-12-17T14:51:58.380Z,83.43
2018-12-17T14:54:27.691Z,83.46
2018-12-17T14:56:57.225Z,83.41
2018-12-17T14:59:26.522Z,83.33
2018-12-17T15:01:55.855Z,83.18
2018-12-17T15:04:25.235Z,83.03
2018-12-17T15:06:54.555Z,82.99
2018-12-17T15:09:23.844Z,83.14
2018-12-17T15:11:53.170Z,82.91
2018-12-17T15:14:22.456Z,83.11
2018-12-17T15:16:51.898Z,83.20
2018-12-17T15:19:21.237Z,83.23
2018-12-17T15:21:50.516Z,83.29
2018-12-17T15:24:19.787Z,83.40
2018-12-17T15:26:49.132Z,83.39
2018-12-17T15:32:50.161Z,83.50
2018-12-17T15:35:31.623Z,83.67
2018-12-17T15:38:14.829Z,83.54
2018-12-17T15:40:57.710Z,83.45
2018-12-17T15:43:50.435Z,83.39
2018-12-17T15:46:26.703Z,83.31
2018-12-17T15:48:57.240Z,83.25
2018-12-17T15:51:26.616Z,83.43
2018-12-17T15:53:56.536Z,83.34
2018-12-17T15:56:25.918Z,83.45
2018-12-17T15:59:35.405Z,83.61
2018-12-17T16:02:04.916Z,83.51
2018-12-17T16:04:52.320Z,83.54
2018-12-17T16:07:51.715Z,83.61
2018-12-17T16:10:43.616Z,83.72
2018-12-17T16:13:14.806Z,83.61
2018-12-17T16:15:56.599Z,83.59
2018-12-17T16:18:34.395Z,83.27
2018-12-17T16:21:27.565Z,83.32
2018-12-17T16:24:28.314Z,83.17
2018-12-17T16:27:27.816Z,83.24
2018-12-17T16:30:13.760Z,82.92
2018-12-17T16:33:03.198Z,82.97
2018-12-17T16:35:39.446Z,82.82
2018-12-17T16:38:09.357Z,82.82
2018-12-17T16:40:38.854Z,82.59
2018-12-17T16:43:08.218Z,82.61
2018-12-17T16:45:39.800Z,82.57
2018-12-17T16:48:32.880Z,82.49
2018-12-17T16:51:17.907Z,82.45
2018-12-17T16:53:56.327Z,82.55
2018-12-17T16:56:34.282Z,82.71
2018-12-17T16:59:23.498Z,82.77
2018-12-17T17:02:19.484Z,82.71
2018-12-17T17:05:10.966Z,82.90
2018-12-17T17:08:17.130Z,82.94
2018-12-17T17:11:15.768Z,83.00
2018-12-17T17:14:05.725Z,83.20
2018-12-17T17:17:05.629Z,83.49
2018-12-17T17:20:30.118Z,83.04
2018-12-17T17:23:05.872Z,83.82
2018-12-17T17:29:06.647Z,83.71
2018-12-17T17:32:11.544Z,84.39
2018-12-17T17:34:13.886Z,84.46
2018-12-17T17:36:43.215Z,84.67
2018-12-17T17:39:12.559Z,84.71
2018-12-17T17:41:41.869Z,84.88
2018-12-17T17:44:11.403Z,84.96
2018-12-17T17:46:40.735Z,84.95
2018-12-17T17:49:10.105Z,84.95
2018-12-17T17:51:39.545Z,85.07
2018-12-17T17:54:08.895Z,85.09
2018-12-17T17:56:38.247Z,84.89
2018-12-17T17:59:07.556Z,85.09
2018-12-17T18:01:37.091Z,85.23
2018-12-17T18:04:06.545Z,85.22
2018-12-17T18:06:35.977Z,85.26
2018-12-17T18:09:08.749Z,85.30
2018-12-17T18:11:38.099Z,85.29
2018-12-17T18:14:07.432Z,85.14
2018-12-17T18:16:36.737Z,85.16
2018-12-17T18:19:07.610Z,85.13
2018-12-17T18:21:37.046Z,84.82
2018-12-17T18:24:06.353Z,85.04
2018-12-17T18:26:35.910Z,85.15
2018-12-17T18:29:05.246Z,85.14
2018-12-17T18:31:34.627Z,85.18
2018-12-17T18:34:03.979Z,85.30
2018-12-17T18:36:33.313Z,85.27
2018-12-17T18:39:02.820Z,85.32
2018-12-17T18:41:32.200Z,85.24
2018-12-17T18:44:01.531Z,85.22
2018-12-17T18:46:30.929Z,85.34
2018-12-17T18:49:00.451Z,85.40
2018-12-17T18:51:29.858Z,85.24
2018-12-17T18:53:59.185Z,85.37
2018-12-17T18:56:28.515Z,85.38
2018-12-17T18:58:57.899Z,85.26
2018-12-17T19:01:27.229Z,85.57
2018-12-17T19:03:56.519Z,86.18
2018-12-17T19:06:25.925Z,86.72
2018-12-17T19:08:55.205Z,87.16
2018-12-17T19:11:24.526Z,87.49
2018-12-17T19:13:53.954Z,87.86
2018-12-17T19:16:23.340Z,88.04
2018-12-17T19:18:52.719Z,88.16
2018-12-17T19:21:22.040Z,88.20
2018-12-17T19:23:51.462Z,88.43
2018-12-17T19:26:20.839Z,88.48
2018-12-17T19:28:50.219Z,88.46
2018-12-17T19:31:19.646Z,88.25
2018-12-17T19:33:49.015Z,88.14
2018-12-17T19:36:18.639Z,88.02
2018-12-17T19:38:47.997Z,87.77
2018-12-17T19:41:17.292Z,87.76
2018-12-17T19:43:46.598Z,87.66
2018-12-17T19:46:16.074Z,87.65
2018-12-17T19:48:45.383Z,87.64
2018-12-17T19:51:14.783Z,87.57
2018-12-17T19:53:44.206Z,87.48
2018-12-17T19:56:13.593Z,87.37
2018-12-17T19:58:42.889Z,87.43
2018-12-17T20:01:12.321Z,87.55
2018-12-17T20:03:41.657Z,87.73
2018-12-17T20:06:11.102Z,87.44
2018-12-17T20:08:40.439Z,87.47
2018-12-17T20:11:09.792Z,87.85
2018-12-17T20:13:39.132Z,87.96
2018-12-17T20:16:08.457Z,87.99
2018-12-17T20:18:37.832Z,88.07
2018-12-17T20:21:07.173Z,88.06
2018-12-17T20:23:36.523Z,88.05
2018-12-17T20:26:05.880Z,87.86
2018-12-17T20:28:35.204Z,88.04
2018-12-17T20:31:04.498Z,87.98
2018-12-17T20:33:33.851Z,88.04
2018-12-17T20:36:03.217Z,87.95
2018-12-17T20:38:32.665Z,88.27
2018-12-17T20:41:02.034Z,88.22
2018-12-17T20:43:31.383Z,88.25
2018-12-17T20:46:00.750Z,88.19
2018-12-17T20:48:30.105Z,88.17
2018-12-17T20:50:59.419Z,88.20
2018-12-17T20:53:28.785Z,88.28
2018-12-17T20:55:58.176Z,88.42
2018-12-17T20:58:27.521Z,88.46
2018-12-17T21:00:56.826Z,88.49
2018-12-17T21:03:26.189Z,88.49
2018-12-17T21:05:55.463Z,88.44
2018-12-17T21:08:24.784Z,88.53
2018-12-17T21:10:54.349Z,89.28
2018-12-17T21:13:23.681Z,87.71
2018-12-17T21:15:53.047Z,87.16
2018-12-17T21:18:22.367Z,87.02
2018-12-17T21:20:51.701Z,87.27
2018-12-17T21:23:21.033Z,87.47
2018-12-17T21:25:50.365Z,87.75
2018-12-17T21:28:19.649Z,87.92
2018-12-17T21:30:48.938Z,88.08
2018-12-17T21:33:18.264Z,88.14
2018-12-17T21:35:47.584Z,88.04
2018-12-17T21:38:16.888Z,88.20
2018-12-17T21:40:46.221Z,88.15
2018-12-17T21:43:15.572Z,88.25
2018-12-17T21:45:45.015Z,88.39
2018-12-17T21:48:14.345Z,88.25
2018-12-17T21:50:43.688Z,88.38
2018-12-17T21:53:12.956Z,88.44
2018-12-17T21:55:42.287Z,88.58
2018-12-17T21:58:11.696Z,88.68
2018-12-17T22:00:41.121Z,88.77
2018-12-17T22:03:13.294Z,88.79
2018-12-17T22:05:39.728Z,88.83
2018-12-17T22:08:09.235Z,88.83
2018-12-17T22:10:38.544Z,88.82
2018-12-17T22:13:07.894Z,88.72
2018-12-17T22:15:37.252Z,88.74
2018-12-17T22:18:06.659Z,88.70
2018-12-17T22:20:36.026Z,88.63
2018-12-17T22:23:05.385Z,88.66
2018-12-17T22:25:34.742Z,88.74
2018-12-17T22:28:04.077Z,88.87
2018-12-17T22:30:33.436Z,88.91
2018-12-17T22:33:02.719Z,88.97
2018-12-17T22:35:32.040Z,88.95
2018-12-17T22:38:01.426Z,89.05
2018-12-17T22:40:31.006Z,88.92
2018-12-17T22:43:00.323Z,89.06
2018-12-17T22:45:29.677Z,89.28
2018-12-17T22:47:58.991Z,89.31
2018-12-17T22:50:28.365Z,89.14
2018-12-17T22:52:57.664Z,89.22
2018-12-17T22:55:27.079Z,88.99
2018-12-17T22:57:56.418Z,89.17
2018-12-17T23:00:25.742Z,89.24
2018-12-17T23:02:55.067Z,89.25
2018-12-17T23:05:24.370Z,89.37
2018-12-17T23:07:53.770Z,89.60
2018-12-17T23:11:02.455Z,89.72
2018-12-17T23:14:05.293Z,89.53
2018-12-17T23:17:11.162Z,89.54
2018-12-17T23:19:42.278Z,89.42
2018-12-17T23:22:11.799Z,89.45
2018-12-17T23:24:41.080Z,89.43
2018-12-17T23:27:10.364Z,89.45
2018-12-17T23:29:39.618Z,89.44
2018-12-17T23:32:08.969Z,89.42
2018-12-17T23:34:38.254Z,89.53
2018-12-17T23:37:07.568Z,89.54
2018-12-17T23:39:36.850Z,89.56
2018-12-17T23:42:06.170Z,89.59
2018-12-17T23:44:38.705Z,89.61
2018-12-17T23:47:08.008Z,89.60
2018-12-17T23:49:37.372Z,89.62
2018-12-17T23:52:06.635Z,89.51
2018-12-17T23:54:35.938Z,89.54
2018-12-17T23:57:05.316Z,89.50
2018-12-17T23:59:34.793Z,89.46
